Picabo, Idaho
Current Conditions -  °F | °C
As of 6:50 PM on Friday 24 Oct 2014 (Local Time) from KSUN Reporting Station
Clear Clear  
Wind Chill: 55°   Ceiling: Unl
Heat Index: 55°   Visibility: 10mi
Dew Point: 30°   Wind: 0mph
Humidity: 38%   Direction: NA
Pressure: 30.1"   Gusts: NA
Location:  43.31°N, 114.07°W
Report Text: KSUN 250050Z 00000KT 10SM SKC 13/M01 A3010
Loading
Personal Weather Stations






























Interactive Weather Map
Tropical Storm Tracking
New forecast layout! Learn more

10-Day Weather Forecast

Advertisements
Track Severe Weather on mobile